Clearlake, WA (98235)

4:36 PM PDT on April 25, 2015 (GMT -0700)
Highlands | | Change Station
CLOSE
Current Station
Personal Weather Station
Location: Mount Vernon, WA
Elevation: 499 ft
Nearby Weather Stations

Elev 499 ft 48.41 °N, 122.28 °W | Updated 10 minutes ago

Partly Cloudy
Partly Cloudy
50.5 °F
Feels Like 50.5 °F
N
1.7
Wind Variable Wind from SSE

Today
High -- | Low -- °F
--% Chance of Precip.
Yesterday
High -- | Low -- °F
Precip. -- in
6:00 AM 8:14 PM
Waxing Crescent, 50% visible
Pressure 30.02 in
Visibility 10.0 miles
Clouds Few 3500 ft
Dew Point 42 °F
Humidity 71%
Rainfall 0.15 in
Snow Depth Not available.
UV 4 out of 12
Pollen 7.30 out of 12
Air Quality Not available.
Flu Activity Regional
METAR KBVS 252315Z AUTO 31006KT 10SM FEW035 12/03 A3002 RMK A01

More Conditions Fewer Conditions

Pressure 30.02 in
Visibility 10.0 miles
Clouds Few 3500 ft
Dew Point 42 °F
Humidity 71%
Rainfall 0.15 in
Snow Depth Not available.
UV 4 out of 12
Pollen 7.30 out of 12
Air Quality Not available.
Flu Activity Regional
METAR KBVS 252315Z AUTO 31006KT 10SM FEW035 12/03 A3002 RMK A01

More Conditions Fewer Conditions

10-Day Weather Forecast

Almanac

Astronomy

Apr. 25, 2015 Rise Set
Actual Time
Civil Twilight
Nautical Twilight
Astronomical Twilight
Moon
Length of Visible Light
Length of Day
Tomorrow will be .
, % of the Moon is Illuminated

Today's Extremes

State Highs State Lows

Community

WunderPhotos

Upload Photos

1,816,845 photos uploaded!

WunderBlogs® & News

Nearby

Air Quality

  Air Quality AQ Index Pollutant
Not available.

Snow Depth

Station Depth Elevation

Earthquake Activity

City Distance Mag. Time & Date
Minimum magnitude displayed is 2.5.

Coastal Water Temperatures

Place Temperature

Stations

Nearby Weather Stations

Station Location Temp. Windchill Dew Point Humidity Wind Precip. Elev Updated Type